עמוד ראשי
METAR-TAF:

METAR-TAF

שדות תעופה :

Fort Nelson, קולומביה הבריטית, קנדה

קו רוחב: 58-50N, קו אורך: 122-35W, גובה: 382מטר

תצפית מזג אוויר נוכחית

הדו"ח נערך לפני 44דקות, בשעה 16:00 UTC
רוח 7קשר מכיוון צפון/צפון-מערב, משתנה בין צפון-מערב ו צפון/צפון-מזרח
טמפרטורת 13 צלסיוס
לחות 38%
לחץ 1014 hPa
ראות: 48.3קילומטר
מעט עננים בגובה 6000רגל
עננים בינוניים בגובה 21000רגל

METAR: CYYE 171600Z 33007KT 320V020 30SM FEW060 BKN210 13/M01 A2993 RMK CU2CC4 SLP146

זמן: 09:44 (16:44 UTC)

תחזית

הדו"ח נערך לפני 4 שעות ו 4דקות, בשעה 12:40 UTC
תחזית בתוקף מ 17 ב 13 UTC עד 18 ב 01 UTC
רוח 5קשר מכיוון מערב/צפון-מערב
ראות: 10קילומטר
עננים בינוניים בגובה 14000רגל
עננים בינוניים בגובה 24000רגל
מ 17 ב 1800UTC
רוח 10קשר מכיוון צפון/צפון-מערב
ראות: 10קילומטר
עננים פזורים בגובה 6000רגל

TAF: CYYE 171240Z 1713/1801 30005KT P6SM BKN140 BKN240 FM171800 34010KT P6SM SCT060 RMK NXT FCST BY 171900Z

תצפיות ותחזיות מזג אוויר לגבי יותר מ- 4,000 שדות תעופה ברחבי העולם. דוחות METAR ו- TAF.

התחנות הזמינות מסומנות בנקודות צהובות ואדומות על גבי המפה.

העבר את העכבר לנקודה הצבעונית על מנת לראות את שם התחנה.

לאחר מכן, לחץ כדי לראות את תוכן ואת תחזיות מזג האוויר.

כדי לשנות את המפה: לחץ על הכפתורים הירוקים עם הפלוס השחור כדי להתקרב; על הכפתור הירוק עם המקף כדי להתרחק; או בחיצים הירוקים למפות סמוכות.


METAR-TAF: